Newton Falls, Ohio
Current Conditions -  °F | °C
As of 8:45 PM on Monday 24 Nov 2014 (Local Time) from KPOV Reporting Station
Overcast Overcast  
Wind Chill: 34°   Ceiling: 3700
Heat Index: 43°   Visibility: 10mi
Dew Point: 27°   Wind: 22mph
Humidity: 53%   Direction: 220°SW
Pressure: 29.72"   Gusts: 30mph
Location:  41.19°N, 80.98°W
Report Text: KPOV 250145Z AUTO 22019G26KT 180V240 10SM OVC037 06/M03 A2972 RMK AO2
Loading
Personal Weather Stations






























Interactive Weather Map New forecast layout! Learn more

10-Day Weather Forecast

Advertisements
Track Severe Weather on mobile